Time;durP1;ratioP1;P1;durP2;ratioP2;P2;SDS_P1;SDS_P2;PMS_P1;PMS_P2;Temp;Humidity;BMP_temperature;BMP_pressure;BME280_temperature;BME280_humidity;BME280_pressure;Samples;Min_cycle;Max_cycle;Signal;HPM_P1;HPM_P2
2022/10/26 00:00:43;;;;;;;5.57;4.03;;;14.00;99.90;;;;;;5033558;28;20808;-62
2022/10/26 00:03:11;;;;;;;6.20;4.90;;;14.00;99.90;;;;;;5033350;28;20516;-61
2022/10/26 00:05:38;;;;;;;6.30;4.40;;;14.10;99.90;;;;;;5032963;28;20482;-61
2022/10/26 00:08:06;;;;;;;5.40;4.63;;;14.00;99.90;;;;;;5033449;28;20446;-62
2022/10/26 00:10:35;;;;;;;4.37;3.97;;;14.00;99.90;;;;;;5032991;28;21004;-61
2022/10/26 00:13:05;;;;;;;9.53;4.30;;;13.90;99.90;;;;;;5033254;28;20549;-61
2022/10/26 00:15:32;;;;;;;9.03;4.10;;;14.00;99.90;;;;;;5033086;28;20872;-62
2022/10/26 00:17:59;;;;;;;4.37;3.53;;;14.10;99.90;;;;;;5033023;28;20493;-61
2022/10/26 00:20:26;;;;;;;6.43;4.73;;;14.00;99.90;;;;;;5033427;28;20458;-61
2022/10/26 00:22:54;;;;;;;4.30;3.90;;;14.00;99.90;;;;;;5033288;28;20866;-61
2022/10/26 00:25:21;;;;;;;8.90;4.40;;;14.10;99.90;;;;;;5032650;28;20500;-61
2022/10/26 00:27:48;;;;;;;4.97;4.37;;;14.10;99.90;;;;;;5033168;28;20550;-61
2022/10/26 00:30:16;;;;;;;10.07;4.40;;;14.10;99.90;;;;;;5033239;28;20450;-62
2022/10/26 00:32:44;;;;;;;4.50;4.07;;;14.10;99.90;;;;;;5032799;28;20451;-61
2022/10/26 00:35:11;;;;;;;5.10;3.80;;;14.10;99.90;;;;;;5032999;28;20446;-61
2022/10/26 00:37:38;;;;;;;4.30;4.00;;;14.10;99.90;;;;;;5032866;28;20541;-61
2022/10/26 00:40:06;;;;;;;13.83;4.30;;;14.10;99.90;;;;;;5032763;28;20541;-61
2022/10/26 00:42:33;;;;;;;8.07;3.87;;;14.10;99.90;;;;;;5033000;28;20470;-61
2022/10/26 00:45:05;;;;;;;8.33;4.30;;;14.10;99.90;;;;;;5033047;28;20478;-62
2022/10/26 00:47:39;;;;;;;6.77;4.13;;;14.00;99.90;;;;;;5033123;28;20869;-62
2022/10/26 00:50:10;;;;;;;5.80;3.90;;;14.10;99.90;;;;;;5033161;28;20464;-61
2022/10/26 00:52:38;;;;;;;6.27;3.60;;;14.20;99.90;;;;;;5032548;28;20902;-61
2022/10/26 00:55:07;;;;;;;4.00;3.50;;;14.20;99.90;;;;;;5032656;28;20452;-61
2022/10/26 00:57:36;;;;;;;4.33;3.87;;;14.20;99.90;;;;;;5032914;28;20860;-61
2022/10/26 01:00:06;;;;;;;3.83;3.40;;;14.20;99.90;;;;;;5032638;28;20435;-61
2022/10/26 01:02:35;;;;;;;4.83;3.30;;;14.30;99.90;;;;;;5032781;28;20466;-61
2022/10/26 01:05:04;;;;;;;6.67;3.70;;;14.20;99.90;;;;;;5032862;28;20496;-62
2022/10/26 01:07:32;;;;;;;4.37;3.97;;;14.20;99.90;;;;;;5032545;28;20784;-62
2022/10/26 01:10:01;;;;;;;3.90;3.50;;;14.20;99.90;;;;;;5032742;28;20445;-61
2022/10/26 01:12:28;;;;;;;6.60;3.77;;;14.20;99.90;;;;;;5035884;28;20833;-61
2022/10/26 01:14:55;;;;;;;6.40;3.40;;;14.20;99.90;;;;;;5036345;28;21005;-62
2022/10/26 01:17:35;;;;;;;6.07;3.80;;;14.30;99.90;;;;;;5036305;28;20815;-61
2022/10/26 01:20:29;;;;;;;5.30;3.37;;;14.30;99.90;;;;;;5036394;28;20461;-61
2022/10/26 01:23:04;;;;;;;4.60;3.63;;;14.30;99.90;;;;;;4992746;28;20832;-61
2022/10/26 01:25:45;;;;;;;3.70;3.37;;;14.20;99.90;;;;;;5035593;28;20585;-62
2022/10/26 01:28:29;;;;;;;4.50;3.10;;;14.10;99.90;;;;;;5036069;28;20431;-61
2022/10/26 01:31:01;;;;;;;4.97;3.50;;;14.20;99.90;;;;;;5036246;28;20462;-61
2022/10/26 01:33:38;;;;;;;4.53;3.27;;;14.30;99.90;;;;;;5036129;28;20466;-61
2022/10/26 01:36:12;;;;;;;8.77;3.90;;;14.30;99.90;;;;;;5035751;28;20430;-61
2022/10/26 01:38:52;;;;;;;5.57;4.10;;;14.30;99.90;;;;;;5035958;28;20766;-61
2022/10/26 01:41:26;;;;;;;6.33;3.83;;;14.30;99.90;;;;;;5035856;28;20430;-61
2022/10/26 01:43:58;;;;;;;4.40;2.97;;;14.30;99.90;;;;;;5035738;28;20549;-61
2022/10/26 01:46:30;;;;;;;4.90;3.53;;;14.30;99.90;;;;;;5035527;28;20470;-61
2022/10/26 01:49:01;;;;;;;7.23;3.60;;;14.20;99.90;;;;;;5035609;28;20996;-61
2022/10/26 01:51:31;;;;;;;4.63;4.20;;;14.30;99.90;;;;;;5035431;28;20443;-61
2022/10/26 01:53:59;;;;;;;7.23;3.90;;;14.30;99.90;;;;;;5035555;28;20577;-61
2022/10/26 01:56:29;;;;;;;6.40;4.07;;;14.30;99.90;;;;;;5035724;28;20449;-61
2022/10/26 01:59:19;;;;;;;7.00;4.10;;;14.20;99.90;;;;;;5035560;28;20446;-61
2022/10/26 02:02:27;;;;;;;6.50;4.30;;;14.10;99.90;;;;;;5035857;28;20477;-61
2022/10/26 02:05:20;;;;;;;6.47;3.87;;;14.10;99.90;;;;;;5035181;28;20509;-61
2022/10/26 02:07:56;;;;;;;4.87;4.47;;;14.10;99.90;;;;;;5035066;28;20518;-62
2022/10/26 02:10:31;;;;;;;9.73;3.83;;;14.00;99.90;;;;;;5035039;28;20431;-61
2022/10/26 02:13:03;;;;;;;5.77;4.37;;;13.90;99.90;;;;;;5035086;28;20453;-61
2022/10/26 02:15:37;;;;;;;10.50;5.07;;;13.90;99.90;;;;;;5035412;28;20423;-61
2022/10/26 02:18:16;;;;;;;5.17;4.67;;;13.90;99.90;;;;;;5034973;28;20928;-61
2022/10/26 02:20:49;;;;;;;5.40;4.53;;;13.90;99.90;;;;;;5035202;28;20782;-61
2022/10/26 02:23:18;;;;;;;7.27;4.27;;;13.80;99.90;;;;;;5034389;28;20890;-61
2022/10/26 02:25:49;;;;;;;5.90;4.30;;;13.70;99.90;;;;;;5034640;28;20494;-61
2022/10/26 02:28:19;;;;;;;9.03;4.63;;;13.60;99.90;;;;;;5034732;28;20462;-61
2022/10/26 02:30:50;;;;;;;7.00;4.87;;;13.50;99.90;;;;;;5034984;28;20456;-62
2022/10/26 02:33:21;;;;;;;8.40;5.43;;;13.60;99.90;;;;;;5034585;28;20557;-61
2022/10/26 02:35:52;;;;;;;10.80;5.17;;;13.60;99.90;;;;;;5034979;28;20465;-62
2022/10/26 02:38:21;;;;;;;5.57;4.47;;;13.70;99.90;;;;;;5034567;28;20517;-62
2022/10/26 02:40:49;;;;;;;6.23;4.63;;;13.70;99.90;;;;;;5034780;28;20454;-61
2022/10/26 02:43:20;;;;;;;6.30;4.30;;;13.80;99.90;;;;;;5034425;28;20505;-62
2022/10/26 02:45:52;;;;;;;5.97;5.00;;;13.70;99.90;;;;;;5034730;28;20477;-61
2022/10/26 02:48:21;;;;;;;5.40;4.20;;;13.70;99.90;;;;;;5034516;28;20431;-61
2022/10/26 02:50:57;;;;;;;8.30;5.10;;;13.60;99.90;;;;;;5034301;28;20465;-61
2022/10/26 02:53:30;;;;;;;7.10;4.40;;;13.60;99.90;;;;;;5034457;28;20560;-61
2022/10/26 02:56:00;;;;;;;9.77;4.70;;;13.60;99.90;;;;;;5034654;28;20521;-61
2022/10/26 02:58:32;;;;;;;12.30;4.30;;;13.60;99.90;;;;;;5034084;28;20932;-62
2022/10/26 03:01:00;;;;;;;8.43;3.90;;;13.60;99.90;;;;;;5034115;28;20431;-61
2022/10/26 03:03:28;;;;;;;6.70;3.50;;;13.70;99.90;;;;;;5034392;28;20501;-61
2022/10/26 03:05:56;;;;;;;7.80;3.30;;;13.80;99.90;;;;;;5033791;28;20478;-61
2022/10/26 03:08:24;;;;;;;4.00;3.57;;;13.80;99.90;;;;;;5034012;28;20435;-61
2022/10/26 03:10:51;;;;;;;4.00;3.33;;;13.90;99.90;;;;;;5033857;28;20543;-62
2022/10/26 03:13:18;;;;;;;3.90;3.40;;;13.90;99.90;;;;;;5034199;28;20470;-61
2022/10/26 03:15:45;;;;;;;4.60;3.40;;;13.90;99.90;;;;;;5033861;28;20792;-62
2022/10/26 03:18:12;;;;;;;5.03;3.53;;;14.00;99.90;;;;;;5033761;28;20456;-61
2022/10/26 03:20:44;;;;;;;3.80;3.37;;;14.00;99.90;;;;;;5033821;28;20452;-61
2022/10/26 03:23:12;;;;;;;5.80;3.70;;;14.00;99.90;;;;;;5033946;28;20466;-61
2022/10/26 03:25:39;;;;;;;5.30;3.47;;;14.00;99.90;;;;;;5033383;28;20492;-61
2022/10/26 03:28:07;;;;;;;4.27;3.70;;;14.10;99.90;;;;;;5033730;28;20485;-61
2022/10/26 03:30:34;;;;;;;5.27;3.60;;;14.00;99.90;;;;;;5033595;28;20945;-61
2022/10/26 03:33:01;;;;;;;4.20;3.70;;;13.90;99.90;;;;;;5033041;28;20457;-61
2022/10/26 03:35:28;;;;;;;4.60;4.20;;;13.90;99.90;;;;;;5033598;28;20493;-61
2022/10/26 03:37:57;;;;;;;5.83;4.00;;;13.80;99.90;;;;;;5033421;28;20490;-61
2022/10/26 03:40:24;;;;;;;3.97;3.57;;;13.70;99.90;;;;;;5033408;28;21020;-62
2022/10/26 03:42:51;;;;;;;3.97;3.20;;;13.80;99.90;;;;;;5033733;28;20920;-62
2022/10/26 03:45:18;;;;;;;6.30;3.80;;;13.90;99.90;;;;;;5034075;28;20450;-61
2022/10/26 03:47:47;;;;;;;9.60;4.07;;;13.90;99.90;;;;;;5033232;28;20492;-61
2022/10/26 03:50:16;;;;;;;8.40;3.93;;;13.90;99.90;;;;;;5033739;28;20465;-61
2022/10/26 03:52:43;;;;;;;11.17;4.80;;;13.90;99.90;;;;;;5033255;28;20553;-61
2022/10/26 03:55:11;;;;;;;5.00;4.50;;;13.90;99.90;;;;;;5033243;28;21020;-61
2022/10/26 03:57:42;;;;;;;7.43;4.50;;;14.00;99.90;;;;;;5033493;28;20529;-61
2022/10/26 04:00:10;;;;;;;4.00;3.60;;;14.00;99.90;;;;;;5033611;28;20473;-61
2022/10/26 04:02:38;;;;;;;8.33;3.97;;;14.00;99.90;;;;;;5033369;28;20466;-61
2022/10/26 04:05:06;;;;;;;6.43;4.67;;;14.00;99.90;;;;;;5033130;28;20452;-61
2022/10/26 04:07:33;;;;;;;7.00;4.20;;;14.00;99.90;;;;;;5033406;28;20902;-61
2022/10/26 04:10:00;;;;;;;5.63;3.77;;;13.90;99.90;;;;;;5033131;28;20962;-61
2022/10/26 04:12:29;;;;;;;6.43;3.70;;;14.00;99.90;;;;;;5033305;28;20556;-61
2022/10/26 04:14:57;;;;;;;6.63;3.77;;;14.00;99.90;;;;;;5033216;28;20789;-61
2022/10/26 04:17:24;;;;;;;8.00;3.60;;;13.90;99.90;;;;;;5033402;28;20453;-62
2022/10/26 04:19:51;;;;;;;4.57;3.37;;;13.90;99.90;;;;;;5033342;28;20480;-61
2022/10/26 04:22:18;;;;;;;7.60;4.20;;;13.90;99.90;;;;;;5032824;28;20466;-61
2022/10/26 04:24:45;;;;;;;6.27;4.03;;;14.10;99.90;;;;;;5031692;28;20908;-61
2022/10/26 04:27:12;;;;;;;4.20;3.80;;;14.10;99.90;;;;;;5032774;28;20496;-61
2022/10/26 04:29:41;;;;;;;5.23;3.33;;;14.10;99.90;;;;;;5032792;28;20506;-61
2022/10/26 04:32:08;;;;;;;4.93;3.40;;;14.20;99.90;;;;;;5032818;28;20550;-61
2022/10/26 04:34:35;;;;;;;5.70;4.07;;;14.20;99.90;;;;;;5032838;28;20878;-61
2022/10/26 04:37:02;;;;;;;5.37;3.77;;;14.20;99.90;;;;;;5032713;28;20446;-61
2022/10/26 04:39:30;;;;;;;6.87;3.67;;;14.20;99.90;;;;;;5032867;28;20996;-61
2022/10/26 04:41:57;;;;;;;3.83;3.40;;;14.20;99.90;;;;;;5032684;28;20549;-61
2022/10/26 04:44:24;;;;;;;6.40;3.30;;;14.20;99.90;;;;;;5033155;28;20456;-61
2022/10/26 04:46:53;;;;;;;4.20;3.80;;;14.20;99.90;;;;;;5036619;28;20489;-61
2022/10/26 04:49:20;;;;;;;6.37;3.23;;;14.30;99.90;;;;;;5036660;28;20921;-61
2022/10/26 04:51:47;;;;;;;6.83;4.40;;;14.30;99.90;;;;;;5036324;28;20438;-61
2022/10/26 04:54:14;;;;;;;5.57;3.27;;;14.30;99.90;;;;;;5036769;28;20479;-61
2022/10/26 04:56:42;;;;;;;4.27;3.20;;;14.40;99.90;;;;;;5036373;28;20972;-61
2022/10/26 04:59:09;;;;;;;10.00;3.33;;;14.40;99.90;;;;;;5036622;28;20458;-61
2022/10/26 05:01:36;;;;;;;6.97;3.43;;;14.50;99.90;;;;;;5036401;28;20450;-61
2022/10/26 05:04:05;;;;;;;5.70;3.63;;;14.50;99.90;;;;;;5036030;28;20548;-61
2022/10/26 05:06:32;;;;;;;5.20;3.57;;;14.60;99.90;;;;;;5035922;28;20568;-61
2022/10/26 05:08:59;;;;;;;8.07;3.73;;;14.60;99.90;;;;;;5036469;28;20525;-62
2022/10/26 05:11:26;;;;;;;4.43;3.50;;;14.60;99.90;;;;;;5036030;28;20488;-61
2022/10/26 05:13:53;;;;;;;3.63;3.07;;;14.60;99.90;;;;;;5036164;28;20512;-62
2022/10/26 05:16:21;;;;;;;4.63;3.03;;;14.60;99.90;;;;;;5036037;28;20536;-62
2022/10/26 05:18:49;;;;;;;6.10;4.27;;;14.70;99.90;;;;;;5036158;28;20608;-61
2022/10/26 05:21:19;;;;;;;7.20;3.30;;;14.70;99.90;;;;;;5035753;28;20450;-62
2022/10/26 05:23:51;;;;;;;3.90;2.90;;;14.80;99.90;;;;;;5035616;28;20470;-63
2022/10/26 05:26:18;;;;;;;4.63;3.10;;;14.70;99.90;;;;;;5035635;28;20504;-62
2022/10/26 05:28:45;;;;;;;3.50;2.43;;;14.70;99.90;;;;;;5035965;28;20450;-62
2022/10/26 05:31:13;;;;;;;4.93;3.40;;;14.70;99.90;;;;;;5035827;28;20481;-61
2022/10/26 05:33:40;;;;;;;3.87;3.57;;;14.80;99.90;;;;;;5035756;28;20550;-62
2022/10/26 05:36:07;;;;;;;3.87;3.30;;;14.80;99.90;;;;;;5035295;28;20541;-62
2022/10/26 05:38:36;;;;;;;9.53;3.10;;;14.90;99.90;;;;;;5035707;28;20458;-62
2022/10/26 05:41:03;;;;;;;3.00;2.73;;;14.90;99.90;;;;;;5035039;28;20442;-62
2022/10/26 05:43:30;;;;;;;3.60;2.90;;;14.90;99.90;;;;;;5035188;28;20504;-62
2022/10/26 05:45:58;;;;;;;7.10;3.80;;;14.90;99.90;;;;;;5035385;28;20496;-62
2022/10/26 05:48:25;;;;;;;6.30;3.07;;;14.90;99.90;;;;;;5034854;28;20805;-62
2022/10/26 05:50:52;;;;;;;7.80;3.50;;;14.80;99.90;;;;;;5035313;28;20521;-62
2022/10/26 05:53:19;;;;;;;5.93;3.30;;;14.90;99.90;;;;;;5035248;28;20466;-62
2022/10/26 05:55:49;;;;;;;3.00;2.70;;;14.90;99.90;;;;;;5035144;28;20451;-62
2022/10/26 05:58:17;;;;;;;5.83;2.90;;;15.00;99.90;;;;;;5034807;28;20446;-62
2022/10/26 06:00:58;;;;;;;6.63;3.03;;;14.90;99.90;;;;;;5034858;28;20465;-62
2022/10/26 06:03:36;;;;;;;4.00;2.90;;;15.00;99.90;;;;;;5035209;28;20520;-62
2022/10/26 06:06:04;;;;;;;3.90;3.30;;;14.90;99.90;;;;;;5034856;28;20421;-62
2022/10/26 06:08:32;;;;;;;5.27;3.60;;;15.00;99.90;;;;;;5034956;28;20482;-62
2022/10/26 06:11:01;;;;;;;3.53;3.00;;;15.00;99.90;;;;;;5034899;28;20430;-62
2022/10/26 06:13:29;;;;;;;4.40;3.00;;;15.10;99.90;;;;;;5034658;28;20501;-62
2022/10/26 06:16:06;;;;;;;6.70;3.70;;;15.10;99.90;;;;;;5035141;28;20533;-62
2022/10/26 06:18:43;;;;;;;3.57;3.13;;;15.10;99.90;;;;;;5034639;28;22206;-61
2022/10/26 06:21:25;;;;;;;4.13;3.20;;;15.10;99.90;;;;;;5034680;28;20544;-62
2022/10/26 06:23:58;;;;;;;4.10;3.57;;;15.00;99.90;;;;;;5034520;28;20505;-62
2022/10/26 06:26:36;;;;;;;3.77;3.40;;;15.10;99.90;;;;;;5034128;28;20450;-62
2022/10/26 06:29:18;;;;;;;5.30;3.97;;;15.00;99.90;;;;;;5034254;28;20441;-62
2022/10/26 06:31:46;;;;;;;4.80;3.97;;;15.00;99.90;;;;;;5034101;28;20434;-62
2022/10/26 06:34:18;;;;;;;7.30;2.97;;;15.00;99.90;;;;;;5034699;28;20446;-62
2022/10/26 06:36:49;;;;;;;3.40;3.10;;;15.00;99.90;;;;;;5034213;28;20892;-62
2022/10/26 06:39:17;;;;;;;6.67;3.30;;;14.90;99.90;;;;;;5033852;28;20442;-62
2022/10/26 06:41:47;;;;;;;7.07;2.83;;;15.00;99.90;;;;;;5033912;28;20431;-62
2022/10/26 06:44:21;;;;;;;5.47;3.30;;;15.00;99.90;;;;;;5034050;28;20489;-62
2022/10/26 06:46:52;;;;;;;3.50;3.20;;;15.00;99.90;;;;;;5034082;28;20469;-62
2022/10/26 06:49:27;;;;;;;5.37;3.77;;;14.90;99.90;;;;;;5033968;28;20485;-62
2022/10/26 06:51:59;;;;;;;3.30;2.83;;;15.10;99.90;;;;;;5033382;28;20438;-62
2022/10/26 06:54:31;;;;;;;4.27;2.70;;;15.10;99.90;;;;;;5034046;28;20522;-62
2022/10/26 06:57:01;;;;;;;4.23;2.83;;;15.20;99.90;;;;;;5033744;28;20777;-62
2022/10/26 06:59:39;;;;;;;4.03;3.00;;;15.40;99.90;;;;;;5033654;28;20871;-62
2022/10/26 07:02:06;;;;;;;6.40;3.67;;;15.40;99.90;;;;;;5033673;28;20466;-62
2022/10/26 07:04:33;;;;;;;3.87;2.70;;;15.60;99.90;;;;;;5034022;28;20450;-61
2022/10/26 07:07:01;;;;;;;5.43;2.77;;;15.60;99.90;;;;;;5033817;28;20832;-62
2022/10/26 07:09:28;;;;;;;5.00;3.10;;;15.70;99.90;;;;;;5032479;28;20537;-62
2022/10/26 07:11:55;;;;;;;4.33;3.40;;;15.70;99.90;;;;;;5033491;28;20540;-62
2022/10/26 07:14:23;;;;;;;4.33;3.13;;;15.70;99.90;;;;;;5033328;28;20450;-62
2022/10/26 07:16:52;;;;;;;4.43;3.03;;;15.80;99.90;;;;;;5033253;28;20454;-62
2022/10/26 07:19:19;;;;;;;10.07;2.97;;;15.80;99.90;;;;;;5033194;28;20561;-62
2022/10/26 07:21:46;;;;;;;7.90;2.93;;;15.80;99.90;;;;;;5033199;28;20934;-62
2022/10/26 07:24:13;;;;;;;5.37;3.27;;;15.90;99.90;;;;;;5032859;28;20930;-62
2022/10/26 07:26:40;;;;;;;5.73;3.20;;;15.90;99.90;;;;;;5033625;28;20773;-62
2022/10/26 07:29:07;;;;;;;8.13;3.33;;;16.00;99.90;;;;;;5033279;28;20783;-63
2022/10/26 07:31:36;;;;;;;5.30;3.43;;;16.00;99.90;;;;;;5033205;28;20537;-62
2022/10/26 07:34:03;;;;;;;6.33;3.40;;;16.10;99.90;;;;;;5032498;28;20562;-62
2022/10/26 07:36:30;;;;;;;5.30;3.23;;;16.10;99.90;;;;;;5032989;28;20446;-62
2022/10/26 07:38:58;;;;;;;6.40;3.23;;;16.20;99.90;;;;;;5033032;28;20453;-62
2022/10/26 07:41:25;;;;;;;3.53;3.03;;;16.10;99.90;;;;;;5032791;28;20549;-58
2022/10/26 07:43:52;;;;;;;10.43;3.93;;;16.20;99.90;;;;;;5032241;28;20454;-59
2022/10/26 07:46:19;;;;;;;4.60;3.30;;;16.20;99.90;;;;;;5032620;28;20453;-59
2022/10/26 07:48:48;;;;;;;5.13;3.17;;;16.20;99.90;;;;;;5032887;28;20492;-59
2022/10/26 07:51:16;;;;;;;4.80;2.70;;;16.20;99.90;;;;;;5033101;28;20450;-59
2022/10/26 07:53:43;;;;;;;4.10;3.43;;;16.20;99.90;;;;;;5032986;28;20552;-59
2022/10/26 07:56:10;;;;;;;6.37;3.23;;;16.30;99.90;;;;;;5032468;28;20548;-59
2022/10/26 07:58:38;;;;;;;7.47;3.77;;;16.40;99.90;;;;;;5032561;28;21043;-57
2022/10/26 08:01:07;;;;;;;4.43;3.00;;;16.40;99.90;;;;;;5033025;28;20484;-58
2022/10/26 08:03:34;;;;;;;6.60;3.10;;;16.40;99.90;;;;;;5032404;28;20843;-60
2022/10/26 08:06:08;;;;;;;9.20;3.50;;;16.40;99.90;;;;;;5028442;28;20541;-62
2022/10/26 08:08:36;;;;;;;3.70;3.40;;;16.50;99.90;;;;;;5030496;28;20514;-57
2022/10/26 08:11:03;;;;;;;4.93;2.73;;;17.30;99.90;;;;;;5031265;28;20450;-57
2022/10/26 08:13:31;;;;;;;3.73;3.13;;;17.80;99.90;;;;;;5032312;28;20537;-56
2022/10/26 08:15:58;;;;;;;4.23;3.10;;;18.30;99.90;;;;;;5032707;28;20446;-55
2022/10/26 08:18:25;;;;;;;4.10;2.73;;;18.10;99.90;;;;;;5032309;28;20938;-55
2022/10/26 08:20:53;;;;;;;5.40;3.83;;;18.40;99.90;;;;;;5035309;28;20517;-57
2022/10/26 08:23:22;;;;;;;4.47;3.00;;;18.60;99.90;;;;;;5036420;28;20446;-57
2022/10/26 08:25:49;;;;;;;3.70;2.57;;;18.50;99.90;;;;;;5036330;28;20462;-54
2022/10/26 08:28:16;;;;;;;3.80;2.40;;;19.00;99.90;;;;;;5034832;28;20488;-56
2022/10/26 08:30:44;;;;;;;2.80;2.10;;;19.00;99.90;;;;;;5036745;28;20468;-57
2022/10/26 08:33:11;;;;;;;6.30;3.37;;;19.00;99.90;;;;;;5036279;28;20470;-57
2022/10/26 08:35:38;;;;;;;4.90;3.50;;;19.30;99.90;;;;;;5035823;28;20458;-57
2022/10/26 08:38:06;;;;;;;4.73;3.00;;;19.20;99.90;;;;;;5035698;28;20442;-55
2022/10/26 08:40:39;;;;;;;4.63;2.77;;;19.30;99.90;;;;;;5035705;28;20764;-57
2022/10/26 08:43:19;;;;;;;3.50;2.57;;;19.10;99.90;;;;;;5034741;28;20493;-58
2022/10/26 08:45:52;;;;;;;4.17;2.50;;;19.00;99.90;;;;;;5036093;28;20430;-57
2022/10/26 08:48:25;;;;;;;8.37;2.40;;;19.40;99.90;;;;;;5035862;28;20553;-58
2022/10/26 08:50:55;;;;;;;5.60;2.77;;;19.50;99.90;;;;;;5036260;28;20427;-59
2022/10/26 08:53:30;;;;;;;3.40;2.30;;;19.30;99.90;;;;;;5035552;28;20502;-58
2022/10/26 09:09:48;;;;;;;7.00;3.70;;;19.10;99.90;;;;;;5074665;28;20769;-56
2022/10/26 09:12:24;;;;;;;7.63;2.80;;;19.20;99.90;;;;;;5073781;28;21045;-56
2022/10/26 09:15:04;;;;;;;4.10;3.10;;;19.50;99.90;;;;;;5073590;28;20444;-56
2022/10/26 11:13:36;;;;;;;9.83;2.60;;;24.20;99.90;;;;;;5072747;28;20478;-57
2022/10/26 11:16:05;;;;;;;7.23;2.80;;;23.50;99.90;;;;;;5093159;28;20454;-56
2022/10/26 11:18:37;;;;;;;4.50;2.90;;;23.40;99.90;;;;;;5093651;28;20443;-57
2022/10/26 11:21:15;;;;;;;5.27;3.00;;;23.30;99.90;;;;;;5093858;28;20462;-56
2022/10/26 11:23:48;;;;;;;4.10;2.57;;;23.10;99.90;;;;;;5093546;28;20455;-56
2022/10/26 11:26:21;;;;;;;5.60;2.80;;;22.80;99.90;;;;;;5093686;28;20483;-56
2022/10/26 11:28:54;;;;;;;4.47;3.00;;;22.80;99.90;;;;;;5093392;28;20544;-57
2022/10/26 11:31:25;;;;;;;5.43;2.60;;;22.70;99.90;;;;;;5093113;28;20781;-57
2022/10/26 11:34:13;;;;;;;11.43;2.67;;;23.20;99.90;;;;;;5093486;28;20467;-56
2022/10/26 11:36:43;;;;;;;3.47;2.50;;;23.20;99.90;;;;;;5093491;28;20435;-56
2022/10/26 11:39:16;;;;;;;6.17;3.30;;;23.70;99.90;;;;;;5093106;28;20423;-57
2022/10/26 11:41:49;;;;;;;3.63;3.03;;;23.70;99.90;;;;;;5093286;28;20428;-56
2022/10/26 11:44:24;;;;;;;7.63;3.07;;;23.50;99.90;;;;;;5093251;28;20952;-57
2022/10/26 11:46:54;;;;;;;2.93;2.40;;;23.00;99.90;;;;;;5093255;28;20433;-57
2022/10/26 11:49:26;;;;;;;6.90;2.97;;;23.00;99.90;;;;;;5092589;28;20479;-57
2022/10/26 11:51:58;;;;;;;5.03;3.63;;;22.90;99.90;;;;;;5092870;28;20844;-57
2022/10/26 11:54:30;;;;;;;3.83;2.70;;;22.90;99.90;;;;;;5092057;28;20938;-56
2022/10/26 11:56:58;;;;;;;5.47;2.97;;;23.10;99.90;;;;;;5092424;28;20436;-57
2022/10/26 11:59:29;;;;;;;5.50;3.03;;;23.10;99.90;;;;;;5092707;28;20926;-55
2022/10/26 12:02:02;;;;;;;4.60;2.80;;;23.20;99.90;;;;;;5092944;28;20436;-56
2022/10/26 12:04:33;;;;;;;2.83;2.20;;;23.60;99.90;;;;;;5092963;28;20436;-57
2022/10/26 12:07:06;;;;;;;7.30;2.70;;;24.00;99.90;;;;;;5092920;28;20428;-57
2022/10/26 12:09:38;;;;;;;4.83;2.50;;;23.80;99.90;;;;;;5093129;28;20475;-56
2022/10/26 12:12:11;;;;;;;4.80;2.33;;;23.60;99.90;;;;;;5092962;28;20484;-57
2022/10/26 12:14:45;;;;;;;7.03;2.70;;;23.30;99.90;;;;;;5092561;28;20486;-57
2022/10/26 12:17:19;;;;;;;7.20;2.30;;;23.30;99.90;;;;;;5092791;28;20438;-57
2022/10/26 12:19:51;;;;;;;5.50;2.73;;;23.30;99.90;;;;;;5078578;28;20441;-60
2022/10/26 12:22:29;;;;;;;2.63;2.40;;;23.30;99.90;;;;;;5072142;28;20986;-60
2022/10/26 12:25:08;;;;;;;4.97;2.90;;;23.50;99.90;;;;;;5072689;28;20441;-60
2022/10/26 12:27:54;;;;;;;9.33;2.50;;;23.60;99.90;;;;;;5071997;28;20987;-59
2022/10/26 12:30:31;;;;;;;2.43;1.90;;;23.70;99.90;;;;;;5072553;28;20511;-59
2022/10/26 12:33:00;;;;;;;4.50;2.70;;;23.40;99.90;;;;;;5072341;28;20460;-60
2022/10/26 12:35:41;;;;;;;5.90;2.47;;;23.40;99.90;;;;;;5072592;28;20855;-59
2022/10/26 12:38:58;;;;;;;3.17;1.87;;;23.00;99.90;;;;;;5072869;28;20482;-59
2022/10/26 12:41:27;;;;;;;5.60;2.20;;;22.90;99.90;;;;;;5072612;28;20464;-59
2022/10/26 12:43:58;;;;;;;4.33;2.20;;;23.10;99.90;;;;;;5072386;28;20971;-59
2022/10/26 12:46:42;;;;;;;6.10;2.80;;;23.30;99.90;;;;;;5072466;28;20428;-60
2022/10/26 12:49:48;;;;;;;6.90;3.03;;;23.20;99.90;;;;;;5072550;28;20832;-59
2022/10/26 12:52:20;;;;;;;6.83;2.30;;;23.10;99.90;;;;;;5002521;28;20465;-59
2022/10/26 12:55:04;;;;;;;3.67;2.00;;;23.30;99.90;;;;;;5072476;28;20451;-58
2022/10/26 12:57:40;;;;;;;5.33;2.50;;;23.40;99.90;;;;;;5072497;28;20435;-60
2022/10/26 13:00:14;;;;;;;4.37;2.50;;;23.40;99.90;;;;;;5072472;28;20498;-60
2022/10/26 13:02:54;;;;;;;5.87;2.73;;;23.00;99.90;;;;;;5072628;28;20467;-60
2022/10/26 13:05:49;;;;;;;3.20;2.60;;;23.10;99.90;;;;;;5072562;28;20456;-60
2022/10/26 13:08:17;;;;;;;5.93;3.00;;;23.20;99.90;;;;;;5075897;28;20484;-60
2022/10/26 13:11:02;;;;;;;7.23;2.37;;;23.10;99.90;;;;;;5075661;28;20452;-60
2022/10/26 13:13:31;;;;;;;3.90;2.10;;;23.10;99.90;;;;;;5074967;28;20561;-60
2022/10/26 13:15:59;;;;;;;4.03;2.23;;;23.40;99.90;;;;;;5075733;28;20448;-60
2022/10/26 13:18:28;;;;;;;4.73;2.47;;;23.60;99.90;;;;;;5075601;28;20440;-60
2022/10/26 13:21:02;;;;;;;4.37;3.57;;;23.20;99.90;;;;;;5075591;28;20513;-60
2022/10/26 13:23:32;;;;;;;3.80;2.23;;;23.60;99.90;;;;;;5075741;28;20538;-60
2022/10/26 13:26:08;;;;;;;7.50;2.30;;;23.70;99.90;;;;;;5075770;28;20593;-60
2022/10/26 13:28:45;;;;;;;2.73;2.43;;;24.20;99.90;;;;;;5075909;28;20475;-60
2022/10/26 13:31:40;;;;;;;4.83;2.27;;;24.60;99.90;;;;;;5075628;28;20433;-60
2022/10/26 13:34:17;;;;;;;4.80;2.37;;;24.40;99.90;;;;;;5075213;28;20483;-60
2022/10/26 13:36:49;;;;;;;7.57;2.40;;;24.50;99.90;;;;;;5075521;28;20433;-60
2022/10/26 13:39:20;;;;;;;11.10;4.70;;;24.40;99.90;;;;;;5075178;28;20480;-60
2022/10/26 13:41:51;;;;;;;7.23;2.80;;;24.20;99.90;;;;;;5075083;28;20896;-60
2022/10/26 13:44:23;;;;;;;4.57;2.73;;;24.20;99.90;;;;;;5075524;28;20464;-60
2022/10/26 13:46:55;;;;;;;3.60;2.60;;;24.20;99.90;;;;;;5075215;28;20436;-60
2022/10/26 13:49:29;;;;;;;5.07;2.47;;;24.10;99.90;;;;;;5074687;28;20817;-60
2022/10/26 13:51:59;;;;;;;3.90;2.43;;;24.30;99.90;;;;;;5075214;28;20445;-60
2022/10/26 13:54:32;;;;;;;6.53;2.40;;;24.10;99.90;;;;;;5074813;28;20823;-60
2022/10/26 13:57:13;;;;;;;3.93;2.10;;;24.10;99.90;;;;;;5075384;28;20425;-60
2022/10/26 13:59:43;;;;;;;4.70;2.57;;;24.10;99.90;;;;;;5075336;28;20433;-60
2022/10/26 14:02:19;;;;;;;4.70;2.50;;;23.90;99.90;;;;;;5074806;28;20803;-60
2022/10/26 14:04:52;;;;;;;3.27;2.13;;;23.70;99.90;;;;;;5075263;28;20521;-60
2022/10/26 14:07:22;;;;;;;2.60;2.10;;;23.70;99.90;;;;;;5074671;28;20409;-60
2022/10/26 14:09:55;;;;;;;4.03;2.40;;;23.50;99.90;;;;;;5074703;28;20838;-60
2022/10/26 14:12:23;;;;;;;4.77;2.73;;;23.40;99.90;;;;;;5074622;28;20480;-60
2022/10/26 14:14:51;;;;;;;5.60;2.80;;;23.20;99.90;;;;;;5074268;28;20487;-60
2022/10/26 14:17:20;;;;;;;3.90;2.07;;;23.10;99.90;;;;;;5074297;28;20451;-60
2022/10/26 14:19:50;;;;;;;3.60;2.30;;;23.00;99.90;;;;;;5074695;28;20448;-60
2022/10/26 14:22:21;;;;;;;4.33;2.00;;;23.20;99.90;;;;;;5074403;28;20973;-60
2022/10/26 14:24:53;;;;;;;4.43;2.50;;;23.40;99.90;;;;;;5074795;28;20432;-60
2022/10/26 14:27:23;;;;;;;4.67;2.43;;;23.30;99.90;;;;;;5074476;28;20425;-60
2022/10/26 14:29:51;;;;;;;2.93;2.27;;;23.30;99.90;;;;;;5074293;28;20491;-60
2022/10/26 14:32:23;;;;;;;3.23;2.20;;;23.30;99.90;;;;;;5074125;28;20468;-60
2022/10/26 14:34:52;;;;;;;3.53;2.50;;;23.20;99.90;;;;;;5074355;28;20867;-60
2022/10/26 14:37:28;;;;;;;2.47;2.27;;;23.10;99.90;;;;;;5074232;28;20455;-60
2022/10/26 14:39:55;;;;;;;5.63;2.40;;;23.20;99.90;;;;;;5073965;28;20851;-60
2022/10/26 14:42:28;;;;;;;3.10;2.80;;;23.40;99.90;;;;;;5074071;28;20542;-60
2022/10/26 14:44:56;;;;;;;7.33;2.57;;;23.20;99.90;;;;;;5073843;28;20424;-60
2022/10/26 14:47:25;;;;;;;3.80;2.03;;;23.10;99.90;;;;;;5073874;28;20440;-60
2022/10/26 14:49:54;;;;;;;4.73;2.63;;;23.10;99.90;;;;;;5073722;28;20484;-60
2022/10/26 14:52:23;;;;;;;2.50;2.27;;;23.20;99.90;;;;;;5073533;28;20470;-60
2022/10/26 14:55:01;;;;;;;4.77;2.33;;;23.30;99.90;;;;;;5074192;28;20448;-60
2022/10/26 14:57:33;;;;;;;7.07;2.70;;;23.40;99.90;;;;;;5073715;28;20436;-60
2022/10/26 15:00:03;;;;;;;3.10;2.40;;;23.20;99.90;;;;;;5074061;28;20775;-60
2022/10/26 15:02:30;;;;;;;3.27;2.00;;;23.00;99.90;;;;;;5073491;28;20464;-60
2022/10/26 15:05:01;;;;;;;4.97;2.87;;;23.00;99.90;;;;;;5073671;28;20453;-60
2022/10/26 15:07:36;;;;;;;3.73;2.27;;;23.20;99.90;;;;;;5074066;28;20451;-60
2022/10/26 15:10:04;;;;;;;5.57;2.70;;;23.20;99.90;;;;;;5073374;28;20468;-60
2022/10/26 15:12:33;;;;;;;5.60;2.67;;;23.20;99.90;;;;;;5073408;28;20997;-60
2022/10/26 15:15:19;;;;;;;4.63;2.20;;;23.10;99.90;;;;;;5053552;28;20918;-60